sensor_id;sensor_type;location;lat;lon;timestamp;pressure;altitude;pressure_sealevel;temperature;humidity
24762;BME280;12865;51.934;10.330;2023-09-08T00:00:17;99627.41;;;17.51;100.00
24762;BME280;12865;51.934;10.330;2023-09-08T00:03:03;99626.56;;;17.51;100.00
24762;BME280;12865;51.934;10.330;2023-09-08T00:05:48;99629.28;;;17.43;100.00
24762;BME280;12865;51.934;10.330;2023-09-08T00:08:34;99623.22;;;17.41;100.00
24762;BME280;12865;51.934;10.330;2023-09-08T00:11:20;99631.66;;;17.38;100.00
24762;BME280;12865;51.934;10.330;2023-09-08T00:14:05;99623.94;;;17.26;100.00
24762;BME280;12865;51.934;10.330;2023-09-08T00:16:52;99622.09;;;17.19;100.00
24762;BME280;12865;51.934;10.330;2023-09-08T00:19:39;99626.31;;;17.13;100.00
24762;BME280;12865;51.934;10.330;2023-09-08T00:22:26;99628.34;;;17.03;100.00
24762;BME280;12865;51.934;10.330;2023-09-08T00:25:12;99624.66;;;16.96;100.00
24762;BME280;12865;51.934;10.330;2023-09-08T00:27:58;99622.66;;;16.90;100.00
24762;BME280;12865;51.934;10.330;2023-09-08T00:30:43;99611.56;;;16.85;100.00
24762;BME280;12865;51.934;10.330;2023-09-08T00:33:29;99609.88;;;16.84;100.00
24762;BME280;12865;51.934;10.330;2023-09-08T00:36:14;99617.78;;;16.85;100.00
24762;BME280;12865;51.934;10.330;2023-09-08T00:39:00;99609.53;;;16.79;100.00
24762;BME280;12865;51.934;10.330;2023-09-08T00:41:46;99608.84;;;16.85;100.00
24762;BME280;12865;51.934;10.330;2023-09-08T00:44:31;99619.16;;;16.81;100.00
24762;BME280;12865;51.934;10.330;2023-09-08T00:47:17;99616.63;;;16.64;100.00
24762;BME280;12865;51.934;10.330;2023-09-08T00:50:04;99619.28;;;16.56;100.00
24762;BME280;12865;51.934;10.330;2023-09-08T00:52:50;99618.94;;;16.59;100.00
24762;BME280;12865;51.934;10.330;2023-09-08T00:55:36;99621.78;;;16.41;100.00
24762;BME280;12865;51.934;10.330;2023-09-08T00:58:21;99618.06;;;16.34;100.00
24762;BME280;12865;51.934;10.330;2023-09-08T01:01:07;99626.47;;;16.23;100.00
24762;BME280;12865;51.934;10.330;2023-09-08T01:03:53;99620.25;;;16.14;100.00
24762;BME280;12865;51.934;10.330;2023-09-08T01:06:38;99612.00;;;16.07;100.00
24762;BME280;12865;51.934;10.330;2023-09-08T01:09:24;99614.84;;;16.06;100.00
24762;BME280;12865;51.934;10.330;2023-09-08T01:12:10;99617.53;;;16.06;100.00
24762;BME280;12865;51.934;10.330;2023-09-08T01:14:56;99611.84;;;16.09;100.00
24762;BME280;12865;51.934;10.330;2023-09-08T01:17:42;99608.81;;;16.04;100.00
24762;BME280;12865;51.934;10.330;2023-09-08T01:26:37;99607.06;;;15.87;100.00
24762;BME280;12865;51.934;10.330;2023-09-08T01:29:26;99611.06;;;15.75;100.00
24762;BME280;12865;51.934;10.330;2023-09-08T01:32:13;99608.84;;;15.62;100.00
24762;BME280;12865;51.934;10.330;2023-09-08T01:35:00;99611.88;;;15.67;100.00
24762;BME280;12865;51.934;10.330;2023-09-08T01:37:47;99601.13;;;15.67;100.00
24762;BME280;12865;51.934;10.330;2023-09-08T01:40:32;99599.25;;;15.59;100.00
24762;BME280;12865;51.934;10.330;2023-09-08T01:43:18;99606.47;;;15.59;100.00
24762;BME280;12865;51.934;10.330;2023-09-08T01:46:04;99602.25;;;15.56;100.00
24762;BME280;12865;51.934;10.330;2023-09-08T01:48:49;99595.00;;;15.49;100.00
24762;BME280;12865;51.934;10.330;2023-09-08T01:51:35;99602.44;;;15.55;100.00
24762;BME280;12865;51.934;10.330;2023-09-08T01:54:21;99600.88;;;15.52;100.00
24762;BME280;12865;51.934;10.330;2023-09-08T01:57:06;99602.88;;;15.50;100.00
24762;BME280;12865;51.934;10.330;2023-09-08T01:59:52;99597.50;;;15.50;100.00
24762;BME280;12865;51.934;10.330;2023-09-08T02:02:38;99597.06;;;15.55;100.00
24762;BME280;12865;51.934;10.330;2023-09-08T02:05:23;99588.59;;;15.50;100.00
24762;BME280;12865;51.934;10.330;2023-09-08T02:08:11;99593.44;;;15.38;100.00
24762;BME280;12865;51.934;10.330;2023-09-08T02:10:57;99592.09;;;15.34;100.00
24762;BME280;12865;51.934;10.330;2023-09-08T02:13:43;99583.97;;;15.26;100.00
24762;BME280;12865;51.934;10.330;2023-09-08T02:16:29;99597.06;;;15.29;100.00
24762;BME280;12865;51.934;10.330;2023-09-08T02:19:14;99588.00;;;15.30;100.00
24762;BME280;12865;51.934;10.330;2023-09-08T02:22:00;99578.22;;;15.21;100.00
24762;BME280;12865;51.934;10.330;2023-09-08T02:24:46;99581.56;;;15.15;100.00
24762;BME280;12865;51.934;10.330;2023-09-08T02:27:31;99583.53;;;15.05;100.00
24762;BME280;12865;51.934;10.330;2023-09-08T02:30:17;99583.84;;;15.02;100.00
24762;BME280;12865;51.934;10.330;2023-09-08T02:33:03;99580.16;;;15.03;100.00
24762;BME280;12865;51.934;10.330;2023-09-08T02:35:49;99580.09;;;14.94;100.00
24762;BME280;12865;51.934;10.330;2023-09-08T02:38:34;99574.38;;;14.89;100.00
24762;BME280;12865;51.934;10.330;2023-09-08T02:41:20;99576.22;;;14.89;100.00
24762;BME280;12865;51.934;10.330;2023-09-08T02:44:06;99569.16;;;14.88;100.00
24762;BME280;12865;51.934;10.330;2023-09-08T02:46:52;99573.03;;;14.85;100.00
24762;BME280;12865;51.934;10.330;2023-09-08T02:49:38;99576.50;;;14.78;100.00
24762;BME280;12865;51.934;10.330;2023-09-08T02:52:23;99564.38;;;14.74;100.00
24762;BME280;12865;51.934;10.330;2023-09-08T02:55:09;99566.69;;;14.69;100.00
24762;BME280;12865;51.934;10.330;2023-09-08T02:57:57;99573.91;;;14.68;100.00
24762;BME280;12865;51.934;10.330;2023-09-08T03:00:43;99569.16;;;14.62;100.00
24762;BME280;12865;51.934;10.330;2023-09-08T03:03:29;99571.84;;;14.62;100.00
24762;BME280;12865;51.934;10.330;2023-09-08T03:06:17;99576.00;;;14.57;100.00
24762;BME280;12865;51.934;10.330;2023-09-08T03:09:03;99574.75;;;14.51;100.00
24762;BME280;12865;51.934;10.330;2023-09-08T03:11:49;99569.41;;;14.51;100.00
24762;BME280;12865;51.934;10.330;2023-09-08T03:14:34;99568.09;;;14.55;100.00
24762;BME280;12865;51.934;10.330;2023-09-08T03:17:20;99572.53;;;14.64;100.00
24762;BME280;12865;51.934;10.330;2023-09-08T03:20:06;99565.53;;;14.71;100.00
24762;BME280;12865;51.934;10.330;2023-09-08T03:22:53;99572.22;;;14.67;100.00
24762;BME280;12865;51.934;10.330;2023-09-08T03:25:38;99564.78;;;14.61;100.00
24762;BME280;12865;51.934;10.330;2023-09-08T03:28:24;99566.56;;;14.52;100.00
24762;BME280;12865;51.934;10.330;2023-09-08T03:31:10;99566.34;;;14.46;100.00
24762;BME280;12865;51.934;10.330;2023-09-08T03:33:55;99563.38;;;14.49;100.00
24762;BME280;12865;51.934;10.330;2023-09-08T03:36:41;99561.47;;;14.41;100.00
24762;BME280;12865;51.934;10.330;2023-09-08T03:39:26;99555.69;;;14.36;100.00
24762;BME280;12865;51.934;10.330;2023-09-08T03:42:12;99560.81;;;14.30;100.00
24762;BME280;12865;51.934;10.330;2023-09-08T03:44:58;99563.69;;;14.28;100.00
24762;BME280;12865;51.934;10.330;2023-09-08T03:47:44;99557.75;;;14.25;100.00
24762;BME280;12865;51.934;10.330;2023-09-08T03:50:29;99560.06;;;14.20;100.00
24762;BME280;12865;51.934;10.330;2023-09-08T03:53:15;99561.75;;;14.21;100.00
24762;BME280;12865;51.934;10.330;2023-09-08T03:56:01;99559.38;;;14.18;100.00
24762;BME280;12865;51.934;10.330;2023-09-08T03:58:47;99567.13;;;14.21;100.00
24762;BME280;12865;51.934;10.330;2023-09-08T04:01:33;99566.44;;;14.19;100.00
24762;BME280;12865;51.934;10.330;2023-09-08T04:04:18;99558.84;;;14.14;100.00
24762;BME280;12865;51.934;10.330;2023-09-08T04:07:05;99563.66;;;14.10;100.00
24762;BME280;12865;51.934;10.330;2023-09-08T04:09:51;99551.44;;;14.08;100.00
24762;BME280;12865;51.934;10.330;2023-09-08T04:12:36;99557.94;;;14.05;100.00
24762;BME280;12865;51.934;10.330;2023-09-08T04:15:22;99554.25;;;14.06;100.00
24762;BME280;12865;51.934;10.330;2023-09-08T04:18:08;99553.03;;;14.01;100.00
24762;BME280;12865;51.934;10.330;2023-09-08T04:20:54;99552.63;;;13.96;100.00
24762;BME280;12865;51.934;10.330;2023-09-08T04:23:40;99560.84;;;13.94;100.00
24762;BME280;12865;51.934;10.330;2023-09-08T04:26:25;99556.88;;;13.98;100.00
24762;BME280;12865;51.934;10.330;2023-09-08T04:29:11;99556.94;;;13.89;100.00
24762;BME280;12865;51.934;10.330;2023-09-08T04:31:57;99554.44;;;13.87;100.00
24762;BME280;12865;51.934;10.330;2023-09-08T04:34:42;99546.84;;;14.00;100.00
24762;BME280;12865;51.934;10.330;2023-09-08T04:37:28;99546.28;;;13.97;100.00
24762;BME280;12865;51.934;10.330;2023-09-08T04:40:15;99548.34;;;14.03;100.00
24762;BME280;12865;51.934;10.330;2023-09-08T04:43:01;99550.97;;;14.12;100.00
24762;BME280;12865;51.934;10.330;2023-09-08T04:45:47;99549.41;;;14.10;100.00
24762;BME280;12865;51.934;10.330;2023-09-08T04:48:32;99553.22;;;14.61;100.00
24762;BME280;12865;51.934;10.330;2023-09-08T04:51:18;99551.75;;;14.92;100.00
24762;BME280;12865;51.934;10.330;2023-09-08T04:54:04;99553.75;;;14.90;100.00
24762;BME280;12865;51.934;10.330;2023-09-08T04:56:50;99556.31;;;14.74;100.00
24762;BME280;12865;51.934;10.330;2023-09-08T04:59:36;99561.75;;;14.56;100.00
24762;BME280;12865;51.934;10.330;2023-09-08T05:02:24;99558.94;;;14.40;100.00
24762;BME280;12865;51.934;10.330;2023-09-08T05:05:10;99566.72;;;14.33;100.00
24762;BME280;12865;51.934;10.330;2023-09-08T05:07:55;99563.06;;;14.34;100.00
24762;BME280;12865;51.934;10.330;2023-09-08T05:10:44;99563.31;;;14.41;100.00
24762;BME280;12865;51.934;10.330;2023-09-08T05:13:29;99572.03;;;14.43;100.00
24762;BME280;12865;51.934;10.330;2023-09-08T05:16:16;99570.56;;;14.48;100.00
24762;BME280;12865;51.934;10.330;2023-09-08T05:19:04;99571.63;;;14.56;100.00
24762;BME280;12865;51.934;10.330;2023-09-08T05:21:51;99578.06;;;14.63;100.00
24762;BME280;12865;51.934;10.330;2023-09-08T05:24:37;99570.47;;;14.58;100.00
24762;BME280;12865;51.934;10.330;2023-09-08T05:27:22;99569.66;;;14.58;100.00
24762;BME280;12865;51.934;10.330;2023-09-08T05:30:08;99574.16;;;14.57;100.00
24762;BME280;12865;51.934;10.330;2023-09-08T05:32:54;99566.78;;;14.59;100.00
24762;BME280;12865;51.934;10.330;2023-09-08T05:35:42;99573.06;;;14.68;100.00
24762;BME280;12865;51.934;10.330;2023-09-08T05:38:28;99574.94;;;14.75;100.00
24762;BME280;12865;51.934;10.330;2023-09-08T05:41:14;99563.34;;;15.01;100.00
24762;BME280;12865;51.934;10.330;2023-09-08T05:44:00;99565.53;;;15.31;100.00
24762;BME280;12865;51.934;10.330;2023-09-08T05:46:45;99552.56;;;15.60;100.00
24762;BME280;12865;51.934;10.330;2023-09-08T05:49:31;99558.16;;;15.91;100.00
24762;BME280;12865;51.934;10.330;2023-09-08T05:52:17;99558.53;;;16.21;100.00
24762;BME280;12865;51.934;10.330;2023-09-08T05:55:03;99556.72;;;16.45;100.00
24762;BME280;12865;51.934;10.330;2023-09-08T05:57:48;99565.47;;;16.72;100.00
24762;BME280;12865;51.934;10.330;2023-09-08T06:00:34;99556.84;;;16.84;100.00
24762;BME280;12865;51.934;10.330;2023-09-08T06:03:20;99555.97;;;17.00;100.00
24762;BME280;12865;51.934;10.330;2023-09-08T06:06:06;99563.19;;;17.16;100.00
24762;BME280;12865;51.934;10.330;2023-09-08T06:08:51;99556.56;;;17.26;100.00
24762;BME280;12865;51.934;10.330;2023-09-08T06:11:37;99555.28;;;17.45;100.00
24762;BME280;12865;51.934;10.330;2023-09-08T06:14:23;99558.44;;;17.65;100.00
24762;BME280;12865;51.934;10.330;2023-09-08T06:17:09;99549.94;;;17.76;100.00
24762;BME280;12865;51.934;10.330;2023-09-08T06:19:55;99557.63;;;17.87;100.00
24762;BME280;12865;51.934;10.330;2023-09-08T06:22:41;99555.00;;;18.02;100.00
24762;BME280;12865;51.934;10.330;2023-09-08T06:25:26;99555.38;;;18.22;100.00
24762;BME280;12865;51.934;10.330;2023-09-08T06:28:14;99555.41;;;18.36;100.00
24762;BME280;12865;51.934;10.330;2023-09-08T06:30:59;99557.88;;;18.46;100.00
24762;BME280;12865;51.934;10.330;2023-09-08T06:33:45;99555.59;;;18.58;100.00
24762;BME280;12865;51.934;10.330;2023-09-08T06:36:31;99562.44;;;18.68;100.00
24762;BME280;12865;51.934;10.330;2023-09-08T06:39:16;99561.97;;;18.79;100.00
24762;BME280;12865;51.934;10.330;2023-09-08T06:42:02;99561.16;;;18.94;100.00
24762;BME280;12865;51.934;10.330;2023-09-08T06:44:48;99565.72;;;19.08;100.00
24762;BME280;12865;51.934;10.330;2023-09-08T06:47:33;99560.06;;;19.17;100.00
24762;BME280;12865;51.934;10.330;2023-09-08T06:50:19;99551.47;;;19.29;100.00
24762;BME280;12865;51.934;10.330;2023-09-08T06:53:05;99556.13;;;19.49;100.00
24762;BME280;12865;51.934;10.330;2023-09-08T06:55:50;99556.94;;;19.65;100.00
24762;BME280;12865;51.934;10.330;2023-09-08T06:58:36;99565.69;;;19.81;100.00
24762;BME280;12865;51.934;10.330;2023-09-08T07:01:22;99562.72;;;19.97;100.00
24762;BME280;12865;51.934;10.330;2023-09-08T07:04:07;99562.50;;;20.14;100.00
24762;BME280;12865;51.934;10.330;2023-09-08T07:06:53;99561.00;;;20.32;100.00
24762;BME280;12865;51.934;10.330;2023-09-08T07:09:40;99556.81;;;20.45;100.00
24762;BME280;12865;51.934;10.330;2023-09-08T07:12:25;99561.50;;;20.57;99.24
24762;BME280;12865;51.934;10.330;2023-09-08T07:15:11;99557.66;;;20.73;98.71
24762;BME280;12865;51.934;10.330;2023-09-08T07:17:56;99568.44;;;20.94;98.17
24762;BME280;12865;51.934;10.330;2023-09-08T07:20:46;99566.25;;;21.11;97.08
24762;BME280;12865;51.934;10.330;2023-09-08T07:23:32;99561.66;;;21.39;95.99
24762;BME280;12865;51.934;10.330;2023-09-08T07:26:18;99568.47;;;21.70;95.64
24762;BME280;12865;51.934;10.330;2023-09-08T07:29:03;99577.97;;;21.93;95.49
24762;BME280;12865;51.934;10.330;2023-09-08T07:31:49;99570.31;;;22.23;96.20
24762;BME280;12865;51.934;10.330;2023-09-08T07:34:35;99579.78;;;22.47;92.81
24762;BME280;12865;51.934;10.330;2023-09-08T07:37:24;99577.06;;;22.54;90.38
24762;BME280;12865;51.934;10.330;2023-09-08T07:40:10;99574.13;;;22.62;90.31
24762;BME280;12865;51.934;10.330;2023-09-08T07:42:56;99568.69;;;22.68;87.94
24762;BME280;12865;51.934;10.330;2023-09-08T07:45:41;99569.56;;;22.89;87.29
24762;BME280;12865;51.934;10.330;2023-09-08T07:48:27;99565.34;;;22.99;87.09
24762;BME280;12865;51.934;10.330;2023-09-08T07:51:13;99561.16;;;23.10;84.33
24762;BME280;12865;51.934;10.330;2023-09-08T07:53:58;99555.28;;;23.20;84.77
24762;BME280;12865;51.934;10.330;2023-09-08T07:56:44;99554.44;;;23.26;84.54
24762;BME280;12865;51.934;10.330;2023-09-08T07:59:30;99560.66;;;23.46;84.53
24762;BME280;12865;51.934;10.330;2023-09-08T08:02:16;99555.56;;;23.63;84.04
24762;BME280;12865;51.934;10.330;2023-09-08T08:05:02;99560.13;;;23.82;83.74
24762;BME280;12865;51.934;10.330;2023-09-08T08:07:47;99561.66;;;24.09;82.19
24762;BME280;12865;51.934;10.330;2023-09-08T08:10:34;99560.28;;;24.32;81.31
24762;BME280;12865;51.934;10.330;2023-09-08T08:13:19;99565.63;;;24.45;77.21
24762;BME280;12865;51.934;10.330;2023-09-08T08:16:05;99560.97;;;24.52;76.21
24762;BME280;12865;51.934;10.330;2023-09-08T08:18:52;99559.50;;;24.74;76.07
24762;BME280;12865;51.934;10.330;2023-09-08T08:21:40;99555.59;;;24.95;74.90
24762;BME280;12865;51.934;10.330;2023-09-08T08:24:29;99558.34;;;25.13;75.71
24762;BME280;12865;51.934;10.330;2023-09-08T08:27:15;99554.41;;;25.27;71.06
24762;BME280;12865;51.934;10.330;2023-09-08T08:30:01;99548.94;;;25.46;71.70
24762;BME280;12865;51.934;10.330;2023-09-08T08:32:50;99557.19;;;25.64;71.42
24762;BME280;12865;51.934;10.330;2023-09-08T08:35:36;99557.97;;;25.83;71.11
24762;BME280;12865;51.934;10.330;2023-09-08T08:38:22;99551.88;;;25.99;73.21
24762;BME280;12865;51.934;10.330;2023-09-08T08:41:08;99553.03;;;26.21;69.93
24762;BME280;12865;51.934;10.330;2023-09-08T08:43:54;99556.69;;;26.45;70.88
24762;BME280;12865;51.934;10.330;2023-09-08T08:46:41;99554.44;;;26.53;64.86
24762;BME280;12865;51.934;10.330;2023-09-08T08:49:27;99556.69;;;26.45;63.46
24762;BME280;12865;51.934;10.330;2023-09-08T08:52:15;99554.44;;;26.53;62.64
24762;BME280;12865;51.934;10.330;2023-09-08T08:55:00;99549.78;;;26.42;58.26
24762;BME280;12865;51.934;10.330;2023-09-08T08:57:46;99549.06;;;26.35;58.73
24762;BME280;12865;51.934;10.330;2023-09-08T09:00:35;99557.63;;;26.50;60.20
24762;BME280;12865;51.934;10.330;2023-09-08T09:03:26;99551.09;;;26.51;61.00
24762;BME280;12865;51.934;10.330;2023-09-08T09:06:12;99551.00;;;26.58;63.40
24762;BME280;12865;51.934;10.330;2023-09-08T09:08:59;99548.28;;;26.70;66.85
24762;BME280;12865;51.934;10.330;2023-09-08T09:11:45;99546.28;;;26.88;64.32
24762;BME280;12865;51.934;10.330;2023-09-08T09:14:34;99545.78;;;26.80;67.63
24762;BME280;12865;51.934;10.330;2023-09-08T09:17:20;99544.72;;;26.81;68.43
24762;BME280;12865;51.934;10.330;2023-09-08T09:22:58;99548.16;;;27.46;62.33
24762;BME280;12865;51.934;10.330;2023-09-08T09:25:44;99537.31;;;27.51;57.15
24762;BME280;12865;51.934;10.330;2023-09-08T09:28:33;99541.81;;;27.69;60.37
24762;BME280;12865;51.934;10.330;2023-09-08T09:31:22;99547.03;;;27.82;55.54
24762;BME280;12865;51.934;10.330;2023-09-08T09:34:08;99530.16;;;27.50;57.55
24762;BME280;12865;51.934;10.330;2023-09-08T09:36:54;99540.31;;;27.61;57.14
24762;BME280;12865;51.934;10.330;2023-09-08T09:39:40;99542.72;;;27.23;56.77
24762;BME280;12865;51.934;10.330;2023-09-08T09:42:27;99542.91;;;27.56;55.89
24762;BME280;12865;51.934;10.330;2023-09-08T09:45:13;99539.53;;;27.78;52.64
24762;BME280;12865;51.934;10.330;2023-09-08T09:47:59;99532.13;;;27.78;53.09
24762;BME280;12865;51.934;10.330;2023-09-08T09:50:45;99535.47;;;27.80;52.66
24762;BME280;12865;51.934;10.330;2023-09-08T09:53:33;99536.22;;;28.49;50.11
24762;BME280;12865;51.934;10.330;2023-09-08T09:56:19;99537.84;;;28.33;50.26
24762;BME280;12865;51.934;10.330;2023-09-08T09:59:09;99535.25;;;27.98;49.45
24762;BME280;12865;51.934;10.330;2023-09-08T10:01:55;99546.00;;;28.00;48.72
24762;BME280;12865;51.934;10.330;2023-09-08T10:04:41;99538.94;;;28.16;47.47
24762;BME280;12865;51.934;10.330;2023-09-08T10:07:27;99533.22;;;28.34;45.93
24762;BME280;12865;51.934;10.330;2023-09-08T10:10:13;99537.44;;;28.25;45.92
24762;BME280;12865;51.934;10.330;2023-09-08T10:13:05;99536.06;;;28.56;45.84
24762;BME280;12865;51.934;10.330;2023-09-08T10:15:53;99527.06;;;28.60;44.48
24762;BME280;12865;51.934;10.330;2023-09-08T10:18:44;99528.44;;;29.29;42.69
24762;BME280;12865;51.934;10.330;2023-09-08T10:21:32;99525.69;;;29.73;40.44
24762;BME280;12865;51.934;10.330;2023-09-08T10:24:23;99529.00;;;30.19;41.17
24762;BME280;12865;51.934;10.330;2023-09-08T10:27:11;99528.25;;;30.28;40.28
24762;BME280;12865;51.934;10.330;2023-09-08T10:30:03;99528.84;;;30.03;38.38
24762;BME280;12865;51.934;10.330;2023-09-08T10:32:52;99530.78;;;30.35;39.69
24762;BME280;12865;51.934;10.330;2023-09-08T10:35:39;99521.47;;;30.68;41.72
24762;BME280;12865;51.934;10.330;2023-09-08T10:38:28;99517.88;;;30.62;38.45
24762;BME280;12865;51.934;10.330;2023-09-08T10:44:07;99512.06;;;31.01;36.43
24762;BME280;12865;51.934;10.330;2023-09-08T10:46:53;99514.78;;;30.91;36.97
24762;BME280;12865;51.934;10.330;2023-09-08T10:49:40;99514.69;;;31.17;39.00
24762;BME280;12865;51.934;10.330;2023-09-08T10:52:26;99517.19;;;30.82;36.13
24762;BME280;12865;51.934;10.330;2023-09-08T10:55:12;99522.47;;;30.94;36.46
24762;BME280;12865;51.934;10.330;2023-09-08T10:57:58;99524.06;;;31.21;35.63
24762;BME280;12865;51.934;10.330;2023-09-08T11:00:46;99518.69;;;31.47;34.60
24762;BME280;12865;51.934;10.330;2023-09-08T11:06:24;99519.69;;;31.88;35.73
24762;BME280;12865;51.934;10.330;2023-09-08T11:09:15;99523.19;;;31.68;33.91
24762;BME280;12865;51.934;10.330;2023-09-08T11:12:01;99522.72;;;31.91;34.00
24762;BME280;12865;51.934;10.330;2023-09-08T11:14:49;99523.88;;;32.11;32.17
24762;BME280;12865;51.934;10.330;2023-09-08T11:17:36;99522.56;;;32.23;32.86
24762;BME280;12865;51.934;10.330;2023-09-08T11:20:27;99525.63;;;32.37;34.88
24762;BME280;12865;51.934;10.330;2023-09-08T11:23:13;99516.50;;;32.62;32.53
24762;BME280;12865;51.934;10.330;2023-09-08T11:25:59;99512.66;;;32.78;33.97
24762;BME280;12865;51.934;10.330;2023-09-08T11:28:45;99511.81;;;32.57;32.51
24762;BME280;12865;51.934;10.330;2023-09-08T11:31:34;99522.28;;;32.40;32.94
24762;BME280;12865;51.934;10.330;2023-09-08T11:34:23;99510.69;;;32.48;32.80
24762;BME280;12865;51.934;10.330;2023-09-08T11:37:15;99514.03;;;32.75;33.15
24762;BME280;12865;51.934;10.330;2023-09-08T11:40:03;99511.81;;;32.67;32.05
24762;BME280;12865;51.934;10.330;2023-09-08T11:42:58;99504.06;;;32.24;33.39
24762;BME280;12865;51.934;10.330;2023-09-08T11:45:43;99507.38;;;32.46;33.30
24762;BME280;12865;51.934;10.330;2023-09-08T11:48:29;99502.06;;;31.99;36.00
24762;BME280;12865;51.934;10.330;2023-09-08T11:51:15;99500.97;;;31.95;35.74
24762;BME280;12865;51.934;10.330;2023-09-08T11:54:01;99498.81;;;32.27;35.56
24762;BME280;12865;51.934;10.330;2023-09-08T11:56:46;99500.22;;;32.40;36.17
24762;BME280;12865;51.934;10.330;2023-09-08T11:59:33;99491.63;;;32.87;36.58
24762;BME280;12865;51.934;10.330;2023-09-08T12:02:19;99488.59;;;32.53;36.11
24762;BME280;12865;51.934;10.330;2023-09-08T12:05:11;99491.38;;;32.94;34.49
24762;BME280;12865;51.934;10.330;2023-09-08T12:07:57;99492.44;;;33.03;35.66
24762;BME280;12865;51.934;10.330;2023-09-08T12:10:43;99486.09;;;32.97;35.97
24762;BME280;12865;51.934;10.330;2023-09-08T12:13:29;99489.19;;;32.30;35.74
24762;BME280;12865;51.934;10.330;2023-09-08T12:16:21;99492.09;;;31.83;36.95
24762;BME280;12865;51.934;10.330;2023-09-08T12:19:30;99486.59;;;32.03;37.67
24762;BME280;12865;51.934;10.330;2023-09-08T12:22:16;99484.19;;;32.47;38.38
24762;BME280;12865;51.934;10.330;2023-09-08T12:25:08;99470.94;;;32.64;37.54
24762;BME280;12865;51.934;10.330;2023-09-08T12:27:54;99477.84;;;32.77;36.58
24762;BME280;12865;51.934;10.330;2023-09-08T12:30:40;99477.22;;;33.10;35.66
24762;BME280;12865;51.934;10.330;2023-09-08T12:33:26;99463.34;;;33.31;36.55
24762;BME280;12865;51.934;10.330;2023-09-08T12:36:13;99471.44;;;32.97;36.13
24762;BME280;12865;51.934;10.330;2023-09-08T12:39:03;99455.22;;;32.45;37.32
24762;BME280;12865;51.934;10.330;2023-09-08T12:41:50;99455.22;;;32.70;37.39
24762;BME280;12865;51.934;10.330;2023-09-08T12:44:35;99453.78;;;32.93;37.46
24762;BME280;12865;51.934;10.330;2023-09-08T12:47:21;99460.34;;;33.17;35.58
24762;BME280;12865;51.934;10.330;2023-09-08T12:50:07;99457.66;;;32.92;35.70
24762;BME280;12865;51.934;10.330;2023-09-08T12:52:54;99459.63;;;32.35;35.91
24762;BME280;12865;51.934;10.330;2023-09-08T12:55:40;99452.69;;;32.03;37.12
24762;BME280;12865;51.934;10.330;2023-09-08T12:58:25;99450.25;;;32.16;38.25
24762;BME280;12865;51.934;10.330;2023-09-08T13:01:12;99455.75;;;32.57;38.13
24762;BME280;12865;51.934;10.330;2023-09-08T13:03:58;99447.97;;;32.94;37.71
24762;BME280;12865;51.934;10.330;2023-09-08T13:06:44;99449.63;;;32.95;36.63
24762;BME280;12865;51.934;10.330;2023-09-08T13:09:30;99448.56;;;32.46;37.03
24762;BME280;12865;51.934;10.330;2023-09-08T13:12:16;99446.34;;;32.07;37.33
24762;BME280;12865;51.934;10.330;2023-09-08T13:15:02;99453.81;;;32.32;37.77
24762;BME280;12865;51.934;10.330;2023-09-08T13:17:48;99450.78;;;32.38;38.07
24762;BME280;12865;51.934;10.330;2023-09-08T13:20:33;99449.16;;;32.73;37.60
24762;BME280;12865;51.934;10.330;2023-09-08T13:23:19;99447.19;;;32.84;36.79
24762;BME280;12865;51.934;10.330;2023-09-08T13:26:05;99444.44;;;32.68;36.89
24762;BME280;12865;51.934;10.330;2023-09-08T13:28:50;99440.00;;;32.62;36.93
24762;BME280;12865;51.934;10.330;2023-09-08T13:31:37;99436.69;;;32.81;37.88
24762;BME280;12865;51.934;10.330;2023-09-08T13:34:24;99431.44;;;32.84;37.45
24762;BME280;12865;51.934;10.330;2023-09-08T13:37:10;99425.88;;;32.99;37.06
24762;BME280;12865;51.934;10.330;2023-09-08T13:39:56;99425.09;;;32.79;37.03
24762;BME280;12865;51.934;10.330;2023-09-08T13:42:42;99426.66;;;33.20;36.90
24762;BME280;12865;51.934;10.330;2023-09-08T13:45:27;99422.81;;;33.06;37.71
24762;BME280;12865;51.934;10.330;2023-09-08T13:48:13;99419.81;;;32.92;37.48
24762;BME280;12865;51.934;10.330;2023-09-08T13:51:02;99419.22;;;32.95;37.23
24762;BME280;12865;51.934;10.330;2023-09-08T13:53:48;99423.88;;;33.10;37.18
24762;BME280;12865;51.934;10.330;2023-09-08T13:56:34;99419.16;;;33.26;36.80
24762;BME280;12865;51.934;10.330;2023-09-08T13:59:20;99418.28;;;33.35;37.76
24762;BME280;12865;51.934;10.330;2023-09-08T14:02:06;99421.69;;;33.22;37.86
24762;BME280;12865;51.934;10.330;2023-09-08T14:04:51;99419.47;;;33.14;37.20
24762;BME280;12865;51.934;10.330;2023-09-08T14:07:37;99416.69;;;33.09;36.69
24762;BME280;12865;51.934;10.330;2023-09-08T14:10:23;99415.69;;;32.59;37.37
24762;BME280;12865;51.934;10.330;2023-09-08T14:13:08;99408.47;;;32.89;37.39
24762;BME280;12865;51.934;10.330;2023-09-08T14:15:54;99410.19;;;32.80;37.74
24762;BME280;12865;51.934;10.330;2023-09-08T14:18:40;99411.84;;;32.55;37.84
24762;BME280;12865;51.934;10.330;2023-09-08T14:21:26;99412.41;;;32.52;37.66
24762;BME280;12865;51.934;10.330;2023-09-08T14:24:11;99408.53;;;32.53;37.97
24762;BME280;12865;51.934;10.330;2023-09-08T14:26:57;99404.41;;;32.46;39.41
24762;BME280;12865;51.934;10.330;2023-09-08T14:29:43;99397.47;;;32.79;37.39
24762;BME280;12865;51.934;10.330;2023-09-08T14:32:28;99396.44;;;32.44;41.22
24762;BME280;12865;51.934;10.330;2023-09-08T14:35:14;99400.28;;;32.33;39.80
24762;BME280;12865;51.934;10.330;2023-09-08T14:38:00;99407.97;;;32.77;37.92